Aviation Digital Data Service (ADDS)

Output produced by METARs form (1510 UTC 21 October 2014)
found at http://aviationweather.gov/adds/metars/
 
KCAR 211123Z 2112/2212 00000KT P6SM BKN250 
     FM220600 04006KT P6SM OVC025